sensor_id;sensor_type;location;lat;lon;timestamp;P1;durP1;ratioP1;P2;durP2;ratioP2
11522;SDS011;70090;43.208;27.904;2023-09-07T00:00:46;8.33;;;7.47;;
11522;SDS011;70090;43.208;27.904;2023-09-07T00:03:13;8.73;;;7.17;;
11522;SDS011;70090;43.208;27.904;2023-09-07T00:05:40;9.90;;;7.37;;
11522;SDS011;70090;43.208;27.904;2023-09-07T00:08:07;8.43;;;7.50;;
11522;SDS011;70090;43.208;27.904;2023-09-07T00:10:33;7.77;;;6.97;;
11522;SDS011;70090;43.208;27.904;2023-09-07T00:13:01;10.33;;;7.07;;
11522;SDS011;70090;43.208;27.904;2023-09-07T00:15:35;10.53;;;7.00;;
11522;SDS011;70090;43.208;27.904;2023-09-07T00:18:03;7.80;;;7.00;;
11522;SDS011;70090;43.208;27.904;2023-09-07T00:20:31;7.80;;;6.73;;
11522;SDS011;70090;43.208;27.904;2023-09-07T00:22:59;7.60;;;6.83;;
11522;SDS011;70090;43.208;27.904;2023-09-07T00:25:26;9.07;;;7.20;;
11522;SDS011;70090;43.208;27.904;2023-09-07T00:27:53;8.87;;;6.77;;
11522;SDS011;70090;43.208;27.904;2023-09-07T00:30:20;7.87;;;7.00;;
11522;SDS011;70090;43.208;27.904;2023-09-07T00:32:48;9.40;;;7.10;;
11522;SDS011;70090;43.208;27.904;2023-09-07T00:35:15;7.73;;;6.70;;
11522;SDS011;70090;43.208;27.904;2023-09-07T00:37:41;8.27;;;6.90;;
11522;SDS011;70090;43.208;27.904;2023-09-07T00:40:08;7.80;;;6.80;;
11522;SDS011;70090;43.208;27.904;2023-09-07T00:42:35;8.40;;;6.47;;
11522;SDS011;70090;43.208;27.904;2023-09-07T00:45:03;8.10;;;7.20;;
11522;SDS011;70090;43.208;27.904;2023-09-07T00:47:30;7.57;;;6.40;;
11522;SDS011;70090;43.208;27.904;2023-09-07T00:50:01;7.40;;;6.70;;
11522;SDS011;70090;43.208;27.904;2023-09-07T00:52:29;7.87;;;6.80;;
11522;SDS011;70090;43.208;27.904;2023-09-07T00:54:57;8.80;;;6.80;;
11522;SDS011;70090;43.208;27.904;2023-09-07T00:57:24;7.63;;;6.83;;
11522;SDS011;70090;43.208;27.904;2023-09-07T00:59:51;7.37;;;6.53;;
11522;SDS011;70090;43.208;27.904;2023-09-07T01:02:18;8.67;;;7.00;;
11522;SDS011;70090;43.208;27.904;2023-09-07T01:04:45;8.60;;;6.80;;
11522;SDS011;70090;43.208;27.904;2023-09-07T01:07:16;7.73;;;6.90;;
11522;SDS011;70090;43.208;27.904;2023-09-07T01:09:46;8.50;;;6.93;;
11522;SDS011;70090;43.208;27.904;2023-09-07T01:12:17;7.67;;;6.70;;
11522;SDS011;70090;43.208;27.904;2023-09-07T01:14:45;8.83;;;7.33;;
11522;SDS011;70090;43.208;27.904;2023-09-07T01:17:12;8.10;;;7.37;;
11522;SDS011;70090;43.208;27.904;2023-09-07T01:19:39;8.67;;;7.07;;
11522;SDS011;70090;43.208;27.904;2023-09-07T01:22:07;8.30;;;6.80;;
11522;SDS011;70090;43.208;27.904;2023-09-07T01:24:35;8.10;;;6.73;;
11522;SDS011;70090;43.208;27.904;2023-09-07T01:27:04;9.83;;;7.27;;
11522;SDS011;70090;43.208;27.904;2023-09-07T01:29:31;8.67;;;6.80;;
11522;SDS011;70090;43.208;27.904;2023-09-07T01:31:59;8.23;;;6.90;;
11522;SDS011;70090;43.208;27.904;2023-09-07T01:34:25;8.27;;;6.40;;
11522;SDS011;70090;43.208;27.904;2023-09-07T01:36:52;7.33;;;6.47;;
11522;SDS011;70090;43.208;27.904;2023-09-07T01:39:21;8.97;;;6.77;;
11522;SDS011;70090;43.208;27.904;2023-09-07T01:41:48;13.13;;;7.30;;
11522;SDS011;70090;43.208;27.904;2023-09-07T01:44:15;8.43;;;7.60;;
11522;SDS011;70090;43.208;27.904;2023-09-07T01:46:42;8.37;;;7.20;;
11522;SDS011;70090;43.208;27.904;2023-09-07T01:49:08;10.03;;;7.00;;
11522;SDS011;70090;43.208;27.904;2023-09-07T01:51:35;9.53;;;7.53;;
11522;SDS011;70090;43.208;27.904;2023-09-07T01:54:02;8.40;;;7.60;;
11522;SDS011;70090;43.208;27.904;2023-09-07T01:56:31;8.37;;;7.43;;
11522;SDS011;70090;43.208;27.904;2023-09-07T01:58:58;8.13;;;7.37;;
11522;SDS011;70090;43.208;27.904;2023-09-07T02:01:25;8.80;;;7.90;;
11522;SDS011;70090;43.208;27.904;2023-09-07T02:03:54;9.97;;;7.83;;
11522;SDS011;70090;43.208;27.904;2023-09-07T02:06:21;8.83;;;7.70;;
11522;SDS011;70090;43.208;27.904;2023-09-07T02:08:48;8.50;;;7.70;;
11522;SDS011;70090;43.208;27.904;2023-09-07T02:11:15;10.83;;;8.90;;
11522;SDS011;70090;43.208;27.904;2023-09-07T02:13:43;10.83;;;8.30;;
11522;SDS011;70090;43.208;27.904;2023-09-07T02:16:12;9.87;;;8.40;;
11522;SDS011;70090;43.208;27.904;2023-09-07T02:18:39;9.63;;;8.63;;
11522;SDS011;70090;43.208;27.904;2023-09-07T02:21:08;10.10;;;9.03;;
11522;SDS011;70090;43.208;27.904;2023-09-07T02:23:36;12.83;;;9.60;;
11522;SDS011;70090;43.208;27.904;2023-09-07T02:26:03;11.63;;;9.60;;
11522;SDS011;70090;43.208;27.904;2023-09-07T02:28:30;10.90;;;9.10;;
11522;SDS011;70090;43.208;27.904;2023-09-07T02:31:03;11.47;;;9.57;;
11522;SDS011;70090;43.208;27.904;2023-09-07T02:33:30;11.03;;;9.90;;
11522;SDS011;70090;43.208;27.904;2023-09-07T02:35:57;11.10;;;9.07;;
11522;SDS011;70090;43.208;27.904;2023-09-07T02:38:25;10.63;;;9.63;;
11522;SDS011;70090;43.208;27.904;2023-09-07T02:40:51;10.50;;;9.40;;
11522;SDS011;70090;43.208;27.904;2023-09-07T02:43:19;11.57;;;9.97;;
11522;SDS011;70090;43.208;27.904;2023-09-07T02:45:48;11.63;;;9.67;;
11522;SDS011;70090;43.208;27.904;2023-09-07T02:48:16;10.87;;;9.77;;
11522;SDS011;70090;43.208;27.904;2023-09-07T02:51:09;10.83;;;9.40;;
11522;SDS011;70090;43.208;27.904;2023-09-07T02:53:36;11.40;;;10.20;;
11522;SDS011;70090;43.208;27.904;2023-09-07T02:56:03;11.33;;;9.80;;
11522;SDS011;70090;43.208;27.904;2023-09-07T02:58:30;11.60;;;10.07;;
11522;SDS011;70090;43.208;27.904;2023-09-07T03:00:58;11.93;;;9.60;;
11522;SDS011;70090;43.208;27.904;2023-09-07T03:03:26;11.17;;;9.23;;
11522;SDS011;70090;43.208;27.904;2023-09-07T03:05:54;11.23;;;9.93;;
11522;SDS011;70090;43.208;27.904;2023-09-07T03:08:21;13.67;;;9.90;;
11522;SDS011;70090;43.208;27.904;2023-09-07T03:10:49;12.07;;;9.60;;
11522;SDS011;70090;43.208;27.904;2023-09-07T03:13:16;10.47;;;9.20;;
11522;SDS011;70090;43.208;27.904;2023-09-07T03:15:43;12.17;;;9.77;;
11522;SDS011;70090;43.208;27.904;2023-09-07T03:18:10;10.67;;;9.53;;
11522;SDS011;70090;43.208;27.904;2023-09-07T03:20:38;10.13;;;9.03;;
11522;SDS011;70090;43.208;27.904;2023-09-07T03:23:16;10.30;;;9.27;;
11522;SDS011;70090;43.208;27.904;2023-09-07T03:26:12;10.37;;;8.90;;
11522;SDS011;70090;43.208;27.904;2023-09-07T03:28:39;12.03;;;8.70;;
11522;SDS011;70090;43.208;27.904;2023-09-07T03:31:06;11.93;;;9.03;;
11522;SDS011;70090;43.208;27.904;2023-09-07T03:33:33;12.57;;;9.10;;
11522;SDS011;70090;43.208;27.904;2023-09-07T03:36:01;11.73;;;8.73;;
11522;SDS011;70090;43.208;27.904;2023-09-07T03:38:28;10.73;;;8.60;;
11522;SDS011;70090;43.208;27.904;2023-09-07T03:40:55;13.00;;;8.90;;
11522;SDS011;70090;43.208;27.904;2023-09-07T03:43:22;9.80;;;8.67;;
11522;SDS011;70090;43.208;27.904;2023-09-07T03:45:48;10.27;;;8.77;;
11522;SDS011;70090;43.208;27.904;2023-09-07T03:48:15;10.87;;;9.00;;
11522;SDS011;70090;43.208;27.904;2023-09-07T03:50:42;10.83;;;8.30;;
11522;SDS011;70090;43.208;27.904;2023-09-07T03:53:10;15.27;;;8.80;;
11522;SDS011;70090;43.208;27.904;2023-09-07T03:55:40;12.67;;;9.03;;
11522;SDS011;70090;43.208;27.904;2023-09-07T03:58:08;12.37;;;8.77;;
11522;SDS011;70090;43.208;27.904;2023-09-07T04:00:37;11.77;;;8.93;;
11522;SDS011;70090;43.208;27.904;2023-09-07T04:03:05;11.20;;;8.87;;
11522;SDS011;70090;43.208;27.904;2023-09-07T04:05:32;10.63;;;9.53;;
11522;SDS011;70090;43.208;27.904;2023-09-07T04:07:59;12.50;;;8.80;;
11522;SDS011;70090;43.208;27.904;2023-09-07T04:10:29;14.57;;;10.07;;
11522;SDS011;70090;43.208;27.904;2023-09-07T04:12:56;11.30;;;8.63;;
11522;SDS011;70090;43.208;27.904;2023-09-07T04:15:23;10.43;;;8.67;;
11522;SDS011;70090;43.208;27.904;2023-09-07T04:17:50;12.60;;;8.40;;
11522;SDS011;70090;43.208;27.904;2023-09-07T04:20:17;14.80;;;9.57;;
11522;SDS011;70090;43.208;27.904;2023-09-07T04:22:44;10.43;;;8.57;;
11522;SDS011;70090;43.208;27.904;2023-09-07T04:25:11;10.40;;;8.27;;
11522;SDS011;70090;43.208;27.904;2023-09-07T04:27:39;11.53;;;8.07;;
11522;SDS011;70090;43.208;27.904;2023-09-07T04:30:06;10.37;;;7.57;;
11522;SDS011;70090;43.208;27.904;2023-09-07T04:32:34;13.33;;;8.63;;
11522;SDS011;70090;43.208;27.904;2023-09-07T04:35:01;13.93;;;8.60;;
11522;SDS011;70090;43.208;27.904;2023-09-07T04:37:28;11.77;;;8.30;;
11522;SDS011;70090;43.208;27.904;2023-09-07T04:39:54;9.60;;;7.73;;
11522;SDS011;70090;43.208;27.904;2023-09-07T04:42:21;12.73;;;8.17;;
11522;SDS011;70090;43.208;27.904;2023-09-07T04:44:49;11.07;;;7.87;;
11522;SDS011;70090;43.208;27.904;2023-09-07T04:47:16;9.27;;;7.73;;
11522;SDS011;70090;43.208;27.904;2023-09-07T04:49:48;11.97;;;8.00;;
11522;SDS011;70090;43.208;27.904;2023-09-07T04:52:15;10.87;;;7.67;;
11522;SDS011;70090;43.208;27.904;2023-09-07T04:54:42;15.93;;;7.93;;
11522;SDS011;70090;43.208;27.904;2023-09-07T04:57:14;12.33;;;7.90;;
11522;SDS011;70090;43.208;27.904;2023-09-07T04:59:45;12.13;;;7.50;;
11522;SDS011;70090;43.208;27.904;2023-09-07T05:05:21;11.70;;;7.70;;
11522;SDS011;70090;43.208;27.904;2023-09-07T05:07:47;11.10;;;7.50;;
11522;SDS011;70090;43.208;27.904;2023-09-07T05:10:14;12.63;;;7.70;;
11522;SDS011;70090;43.208;27.904;2023-09-07T05:12:41;10.17;;;7.17;;
11522;SDS011;70090;43.208;27.904;2023-09-07T05:15:08;11.20;;;7.33;;
11522;SDS011;70090;43.208;27.904;2023-09-07T05:17:37;13.87;;;7.70;;
11522;SDS011;70090;43.208;27.904;2023-09-07T05:20:04;10.27;;;7.37;;
11522;SDS011;70090;43.208;27.904;2023-09-07T05:22:52;8.53;;;6.90;;
11522;SDS011;70090;43.208;27.904;2023-09-07T05:25:42;10.67;;;6.83;;
11522;SDS011;70090;43.208;27.904;2023-09-07T05:28:10;9.87;;;7.30;;
11522;SDS011;70090;43.208;27.904;2023-09-07T05:30:39;10.97;;;6.93;;
11522;SDS011;70090;43.208;27.904;2023-09-07T05:33:07;11.10;;;7.40;;
11522;SDS011;70090;43.208;27.904;2023-09-07T05:35:35;9.20;;;7.00;;
11522;SDS011;70090;43.208;27.904;2023-09-07T05:38:02;9.37;;;7.03;;
11522;SDS011;70090;43.208;27.904;2023-09-07T05:40:29;10.10;;;7.03;;
11522;SDS011;70090;43.208;27.904;2023-09-07T05:42:59;9.87;;;6.60;;
11522;SDS011;70090;43.208;27.904;2023-09-07T05:45:26;9.47;;;7.00;;
11522;SDS011;70090;43.208;27.904;2023-09-07T05:47:53;9.73;;;6.60;;
11522;SDS011;70090;43.208;27.904;2023-09-07T05:50:21;12.17;;;6.90;;
11522;SDS011;70090;43.208;27.904;2023-09-07T05:52:48;9.13;;;7.00;;
11522;SDS011;70090;43.208;27.904;2023-09-07T05:55:15;11.03;;;6.80;;
11522;SDS011;70090;43.208;27.904;2023-09-07T05:57:42;12.03;;;6.70;;
11522;SDS011;70090;43.208;27.904;2023-09-07T06:00:09;9.10;;;6.83;;
11522;SDS011;70090;43.208;27.904;2023-09-07T06:02:36;7.50;;;6.63;;
11522;SDS011;70090;43.208;27.904;2023-09-07T06:05:03;11.23;;;7.30;;
11522;SDS011;70090;43.208;27.904;2023-09-07T06:07:32;10.07;;;6.70;;
11522;SDS011;70090;43.208;27.904;2023-09-07T06:09:59;9.37;;;7.00;;
11522;SDS011;70090;43.208;27.904;2023-09-07T06:12:26;8.70;;;6.73;;
11522;SDS011;70090;43.208;27.904;2023-09-07T06:14:54;10.80;;;7.70;;
11522;SDS011;70090;43.208;27.904;2023-09-07T06:17:20;11.87;;;8.00;;
11522;SDS011;70090;43.208;27.904;2023-09-07T06:19:47;11.43;;;8.10;;
11522;SDS011;70090;43.208;27.904;2023-09-07T06:22:14;9.97;;;7.23;;
11522;SDS011;70090;43.208;27.904;2023-09-07T06:24:42;11.03;;;6.77;;
11522;SDS011;70090;43.208;27.904;2023-09-07T06:27:09;14.20;;;7.20;;
11522;SDS011;70090;43.208;27.904;2023-09-07T06:29:36;10.20;;;7.07;;
11522;SDS011;70090;43.208;27.904;2023-09-07T06:32:03;11.33;;;7.13;;
11522;SDS011;70090;43.208;27.904;2023-09-07T06:34:30;11.33;;;7.90;;
11522;SDS011;70090;43.208;27.904;2023-09-07T06:36:56;10.63;;;5.57;;
11522;SDS011;70090;43.208;27.904;2023-09-07T06:39:23;10.20;;;6.73;;
11522;SDS011;70090;43.208;27.904;2023-09-07T06:41:52;9.20;;;6.07;;
11522;SDS011;70090;43.208;27.904;2023-09-07T06:44:19;11.10;;;6.37;;
11522;SDS011;70090;43.208;27.904;2023-09-07T06:46:45;7.57;;;5.67;;
11522;SDS011;70090;43.208;27.904;2023-09-07T06:49:12;9.87;;;5.60;;
11522;SDS011;70090;43.208;27.904;2023-09-07T06:51:39;9.60;;;6.00;;
11522;SDS011;70090;43.208;27.904;2023-09-07T06:54:06;10.50;;;6.20;;
11522;SDS011;70090;43.208;27.904;2023-09-07T06:56:33;8.03;;;5.97;;
11522;SDS011;70090;43.208;27.904;2023-09-07T06:59:01;11.20;;;6.60;;
11522;SDS011;70090;43.208;27.904;2023-09-07T07:01:28;7.90;;;6.07;;
11522;SDS011;70090;43.208;27.904;2023-09-07T07:03:55;8.50;;;6.10;;
11522;SDS011;70090;43.208;27.904;2023-09-07T07:06:22;9.30;;;6.20;;
11522;SDS011;70090;43.208;27.904;2023-09-07T07:08:49;8.00;;;5.33;;
11522;SDS011;70090;43.208;27.904;2023-09-07T07:11:16;10.20;;;6.47;;
11522;SDS011;70090;43.208;27.904;2023-09-07T07:13:43;10.67;;;6.30;;
11522;SDS011;70090;43.208;27.904;2023-09-07T07:16:11;11.87;;;6.07;;
11522;SDS011;70090;43.208;27.904;2023-09-07T07:18:38;9.23;;;6.17;;
11522;SDS011;70090;43.208;27.904;2023-09-07T07:21:05;10.50;;;5.90;;
11522;SDS011;70090;43.208;27.904;2023-09-07T07:23:34;8.80;;;6.10;;
11522;SDS011;70090;43.208;27.904;2023-09-07T07:26:01;11.53;;;7.87;;
11522;SDS011;70090;43.208;27.904;2023-09-07T07:28:28;11.60;;;7.53;;
11522;SDS011;70090;43.208;27.904;2023-09-07T07:30:55;9.80;;;6.20;;
11522;SDS011;70090;43.208;27.904;2023-09-07T07:33:23;8.47;;;5.63;;
11522;SDS011;70090;43.208;27.904;2023-09-07T07:35:50;7.00;;;5.47;;
11522;SDS011;70090;43.208;27.904;2023-09-07T07:38:17;9.33;;;5.47;;
11522;SDS011;70090;43.208;27.904;2023-09-07T07:40:44;9.30;;;7.33;;
11522;SDS011;70090;43.208;27.904;2023-09-07T07:43:11;10.03;;;6.93;;
11522;SDS011;70090;43.208;27.904;2023-09-07T07:45:38;10.97;;;6.20;;
11522;SDS011;70090;43.208;27.904;2023-09-07T07:48:04;10.03;;;7.27;;
11522;SDS011;70090;43.208;27.904;2023-09-07T07:50:38;12.83;;;8.07;;
11522;SDS011;70090;43.208;27.904;2023-09-07T07:53:05;8.17;;;5.80;;
11522;SDS011;70090;43.208;27.904;2023-09-07T07:55:34;12.63;;;7.60;;
11522;SDS011;70090;43.208;27.904;2023-09-07T07:58:04;11.10;;;7.20;;
11522;SDS011;70090;43.208;27.904;2023-09-07T08:00:32;13.73;;;6.50;;
11522;SDS011;70090;43.208;27.904;2023-09-07T08:02:59;13.47;;;6.90;;
11522;SDS011;70090;43.208;27.904;2023-09-07T08:05:27;8.27;;;6.30;;
11522;SDS011;70090;43.208;27.904;2023-09-07T08:07:55;10.60;;;7.43;;
11522;SDS011;70090;43.208;27.904;2023-09-07T08:10:22;8.87;;;6.30;;
11522;SDS011;70090;43.208;27.904;2023-09-07T08:12:51;10.83;;;6.50;;
11522;SDS011;70090;43.208;27.904;2023-09-07T08:15:19;12.60;;;6.40;;
11522;SDS011;70090;43.208;27.904;2023-09-07T08:17:47;8.90;;;7.00;;
11522;SDS011;70090;43.208;27.904;2023-09-07T08:20:15;9.97;;;6.80;;
11522;SDS011;70090;43.208;27.904;2023-09-07T08:22:41;7.30;;;5.80;;
11522;SDS011;70090;43.208;27.904;2023-09-07T08:25:10;10.37;;;6.60;;
11522;SDS011;70090;43.208;27.904;2023-09-07T08:27:39;7.87;;;6.20;;
11522;SDS011;70090;43.208;27.904;2023-09-07T08:30:10;11.53;;;6.20;;
11522;SDS011;70090;43.208;27.904;2023-09-07T08:32:38;10.67;;;6.73;;
11522;SDS011;70090;43.208;27.904;2023-09-07T08:35:05;8.50;;;6.03;;
11522;SDS011;70090;43.208;27.904;2023-09-07T08:37:34;10.17;;;6.30;;
11522;SDS011;70090;43.208;27.904;2023-09-07T08:40:01;12.97;;;6.40;;
11522;SDS011;70090;43.208;27.904;2023-09-07T08:42:31;9.83;;;6.40;;
11522;SDS011;70090;43.208;27.904;2023-09-07T08:44:58;9.33;;;6.10;;
11522;SDS011;70090;43.208;27.904;2023-09-07T08:47:31;7.13;;;5.57;;
11522;SDS011;70090;43.208;27.904;2023-09-07T08:50:01;10.27;;;6.37;;
11522;SDS011;70090;43.208;27.904;2023-09-07T08:52:28;8.23;;;5.87;;
11522;SDS011;70090;43.208;27.904;2023-09-07T08:54:55;7.60;;;5.87;;
11522;SDS011;70090;43.208;27.904;2023-09-07T08:57:25;8.63;;;6.00;;
11522;SDS011;70090;43.208;27.904;2023-09-07T08:59:54;7.20;;;5.93;;
11522;SDS011;70090;43.208;27.904;2023-09-07T09:02:21;10.20;;;6.00;;
11522;SDS011;70090;43.208;27.904;2023-09-07T09:04:48;9.63;;;5.97;;
11522;SDS011;70090;43.208;27.904;2023-09-07T09:07:15;8.27;;;6.10;;
11522;SDS011;70090;43.208;27.904;2023-09-07T09:09:42;9.07;;;6.03;;
11522;SDS011;70090;43.208;27.904;2023-09-07T09:12:10;11.47;;;5.73;;
11522;SDS011;70090;43.208;27.904;2023-09-07T09:14:38;10.57;;;5.80;;
11522;SDS011;70090;43.208;27.904;2023-09-07T09:17:12;8.37;;;6.30;;
11522;SDS011;70090;43.208;27.904;2023-09-07T09:19:39;8.47;;;5.90;;
11522;SDS011;70090;43.208;27.904;2023-09-07T09:22:07;8.80;;;5.90;;
11522;SDS011;70090;43.208;27.904;2023-09-07T09:24:34;9.63;;;6.03;;
11522;SDS011;70090;43.208;27.904;2023-09-07T09:27:01;10.57;;;5.90;;
11522;SDS011;70090;43.208;27.904;2023-09-07T09:29:29;10.10;;;6.73;;
11522;SDS011;70090;43.208;27.904;2023-09-07T09:31:59;9.20;;;5.93;;
11522;SDS011;70090;43.208;27.904;2023-09-07T09:34:32;11.90;;;6.67;;
11522;SDS011;70090;43.208;27.904;2023-09-07T09:37:00;9.90;;;6.17;;
11522;SDS011;70090;43.208;27.904;2023-09-07T09:39:28;6.93;;;6.10;;
11522;SDS011;70090;43.208;27.904;2023-09-07T09:41:56;10.70;;;6.13;;
11522;SDS011;70090;43.208;27.904;2023-09-07T09:44:24;10.17;;;6.63;;
11522;SDS011;70090;43.208;27.904;2023-09-07T09:46:51;7.27;;;6.03;;
11522;SDS011;70090;43.208;27.904;2023-09-07T09:49:19;9.87;;;6.07;;
11522;SDS011;70090;43.208;27.904;2023-09-07T09:51:49;8.13;;;6.60;;
11522;SDS011;70090;43.208;27.904;2023-09-07T09:54:16;10.63;;;6.20;;
11522;SDS011;70090;43.208;27.904;2023-09-07T09:56:44;8.90;;;6.70;;
11522;SDS011;70090;43.208;27.904;2023-09-07T09:59:11;9.10;;;6.47;;
11522;SDS011;70090;43.208;27.904;2023-09-07T10:01:40;8.87;;;6.07;;
11522;SDS011;70090;43.208;27.904;2023-09-07T10:04:10;11.20;;;6.37;;
11522;SDS011;70090;43.208;27.904;2023-09-07T10:06:52;8.83;;;5.93;;
11522;SDS011;70090;43.208;27.904;2023-09-07T10:09:21;8.17;;;5.80;;
11522;SDS011;70090;43.208;27.904;2023-09-07T10:11:51;6.57;;;5.73;;
11522;SDS011;70090;43.208;27.904;2023-09-07T10:14:19;8.57;;;5.80;;
11522;SDS011;70090;43.208;27.904;2023-09-07T10:16:49;6.97;;;6.03;;
11522;SDS011;70090;43.208;27.904;2023-09-07T10:19:35;9.30;;;6.10;;
11522;SDS011;70090;43.208;27.904;2023-09-07T10:22:21;8.53;;;6.00;;
11522;SDS011;70090;43.208;27.904;2023-09-07T10:25:06;9.80;;;6.17;;
11522;SDS011;70090;43.208;27.904;2023-09-07T10:27:45;11.67;;;6.20;;
11522;SDS011;70090;43.208;27.904;2023-09-07T10:30:13;7.43;;;6.13;;
11522;SDS011;70090;43.208;27.904;2023-09-07T10:32:44;9.90;;;6.60;;
11522;SDS011;70090;43.208;27.904;2023-09-07T10:35:14;9.17;;;6.67;;
11522;SDS011;70090;43.208;27.904;2023-09-07T10:37:45;8.80;;;6.57;;
11522;SDS011;70090;43.208;27.904;2023-09-07T10:40:13;8.00;;;6.10;;
11522;SDS011;70090;43.208;27.904;2023-09-07T10:42:44;7.83;;;6.43;;
11522;SDS011;70090;43.208;27.904;2023-09-07T10:45:11;7.80;;;6.00;;
11522;SDS011;70090;43.208;27.904;2023-09-07T10:47:41;8.23;;;6.20;;
11522;SDS011;70090;43.208;27.904;2023-09-07T10:50:09;10.20;;;6.30;;
11522;SDS011;70090;43.208;27.904;2023-09-07T10:52:38;10.67;;;5.93;;
11522;SDS011;70090;43.208;27.904;2023-09-07T10:55:08;8.23;;;6.10;;
11522;SDS011;70090;43.208;27.904;2023-09-07T10:57:43;8.93;;;6.00;;
11522;SDS011;70090;43.208;27.904;2023-09-07T11:00:10;11.87;;;6.83;;
11522;SDS011;70090;43.208;27.904;2023-09-07T11:02:39;9.50;;;6.57;;
11522;SDS011;70090;43.208;27.904;2023-09-07T11:05:06;8.37;;;5.80;;
11522;SDS011;70090;43.208;27.904;2023-09-07T11:07:35;9.30;;;5.70;;
11522;SDS011;70090;43.208;27.904;2023-09-07T11:10:05;9.20;;;6.00;;
11522;SDS011;70090;43.208;27.904;2023-09-07T11:12:37;6.47;;;5.70;;
11522;SDS011;70090;43.208;27.904;2023-09-07T11:15:05;7.87;;;6.20;;
11522;SDS011;70090;43.208;27.904;2023-09-07T11:17:36;8.27;;;5.90;;
11522;SDS011;70090;43.208;27.904;2023-09-07T11:20:06;9.83;;;5.83;;
11522;SDS011;70090;43.208;27.904;2023-09-07T11:22:33;11.63;;;6.13;;
11522;SDS011;70090;43.208;27.904;2023-09-07T11:25:04;10.63;;;6.10;;
11522;SDS011;70090;43.208;27.904;2023-09-07T11:27:31;14.03;;;6.87;;
11522;SDS011;70090;43.208;27.904;2023-09-07T11:30:00;9.03;;;5.80;;
11522;SDS011;70090;43.208;27.904;2023-09-07T11:32:33;6.43;;;5.53;;
11522;SDS011;70090;43.208;27.904;2023-09-07T11:35:00;10.20;;;6.80;;
11522;SDS011;70090;43.208;27.904;2023-09-07T11:37:27;9.80;;;5.70;;
11522;SDS011;70090;43.208;27.904;2023-09-07T11:39:54;7.37;;;5.87;;
11522;SDS011;70090;43.208;27.904;2023-09-07T11:42:21;7.37;;;5.70;;
11522;SDS011;70090;43.208;27.904;2023-09-07T11:44:48;7.00;;;5.50;;
11522;SDS011;70090;43.208;27.904;2023-09-07T11:47:16;6.47;;;5.03;;
11522;SDS011;70090;43.208;27.904;2023-09-07T11:49:43;10.07;;;5.53;;
11522;SDS011;70090;43.208;27.904;2023-09-07T11:52:10;8.07;;;5.30;;
11522;SDS011;70090;43.208;27.904;2023-09-07T11:54:37;7.13;;;5.77;;
11522;SDS011;70090;43.208;27.904;2023-09-07T11:57:04;7.03;;;5.80;;
11522;SDS011;70090;43.208;27.904;2023-09-07T11:59:31;6.10;;;5.13;;
11522;SDS011;70090;43.208;27.904;2023-09-07T12:01:59;8.27;;;5.90;;
11522;SDS011;70090;43.208;27.904;2023-09-07T12:04:27;9.77;;;5.30;;
11522;SDS011;70090;43.208;27.904;2023-09-07T12:06:54;8.73;;;5.53;;
11522;SDS011;70090;43.208;27.904;2023-09-07T12:09:21;9.47;;;5.37;;
11522;SDS011;70090;43.208;27.904;2023-09-07T12:11:48;10.17;;;6.20;;
11522;SDS011;70090;43.208;27.904;2023-09-07T12:14:14;8.30;;;5.70;;
11522;SDS011;70090;43.208;27.904;2023-09-07T12:16:41;11.97;;;5.87;;
11522;SDS011;70090;43.208;27.904;2023-09-07T12:19:08;8.37;;;5.73;;
11522;SDS011;70090;43.208;27.904;2023-09-07T12:21:36;9.13;;;5.57;;
11522;SDS011;70090;43.208;27.904;2023-09-07T12:24:03;7.80;;;5.80;;
11522;SDS011;70090;43.208;27.904;2023-09-07T12:26:31;6.83;;;5.90;;
11522;SDS011;70090;43.208;27.904;2023-09-07T12:28:57;7.87;;;5.67;;
11522;SDS011;70090;43.208;27.904;2023-09-07T12:31:25;10.53;;;5.40;;
11522;SDS011;70090;43.208;27.904;2023-09-07T12:33:52;7.60;;;5.23;;
11522;SDS011;70090;43.208;27.904;2023-09-07T12:36:18;6.27;;;5.17;;
11522;SDS011;70090;43.208;27.904;2023-09-07T12:38:48;8.50;;;5.60;;
11522;SDS011;70090;43.208;27.904;2023-09-07T12:41:14;7.00;;;5.40;;
11522;SDS011;70090;43.208;27.904;2023-09-07T12:43:41;10.53;;;5.50;;
11522;SDS011;70090;43.208;27.904;2023-09-07T12:46:10;7.50;;;5.43;;
11522;SDS011;70090;43.208;27.904;2023-09-07T12:48:37;6.80;;;5.47;;
11522;SDS011;70090;43.208;27.904;2023-09-07T12:51:04;10.77;;;5.50;;
11522;SDS011;70090;43.208;27.904;2023-09-07T12:53:31;8.90;;;5.60;;
11522;SDS011;70090;43.208;27.904;2023-09-07T12:55:59;9.30;;;5.13;;
11522;SDS011;70090;43.208;27.904;2023-09-07T12:58:26;6.30;;;5.50;;
11522;SDS011;70090;43.208;27.904;2023-09-07T13:00:53;7.47;;;5.40;;
11522;SDS011;70090;43.208;27.904;2023-09-07T13:03:20;9.70;;;5.23;;
11522;SDS011;70090;43.208;27.904;2023-09-07T13:05:47;8.33;;;5.00;;
11522;SDS011;70090;43.208;27.904;2023-09-07T13:08:14;8.77;;;6.00;;
11522;SDS011;70090;43.208;27.904;2023-09-07T13:10:41;7.47;;;6.30;;
11522;SDS011;70090;43.208;27.904;2023-09-07T13:13:09;9.67;;;5.93;;
11522;SDS011;70090;43.208;27.904;2023-09-07T13:15:36;6.70;;;4.93;;
11522;SDS011;70090;43.208;27.904;2023-09-07T13:18:03;8.47;;;5.07;;
11522;SDS011;70090;43.208;27.904;2023-09-07T13:20:35;7.80;;;5.30;;
11522;SDS011;70090;43.208;27.904;2023-09-07T13:23:46;8.27;;;5.30;;
11522;SDS011;70090;43.208;27.904;2023-09-07T13:26:13;7.83;;;5.80;;
11522;SDS011;70090;43.208;27.904;2023-09-07T13:28:41;9.17;;;5.43;;
11522;SDS011;70090;43.208;27.904;2023-09-07T13:31:08;8.03;;;6.13;;
11522;SDS011;70090;43.208;27.904;2023-09-07T13:33:35;8.40;;;5.80;;
11522;SDS011;70090;43.208;27.904;2023-09-07T13:36:02;8.30;;;5.83;;
11522;SDS011;70090;43.208;27.904;2023-09-07T13:38:29;9.37;;;7.00;;
11522;SDS011;70090;43.208;27.904;2023-09-07T13:40:57;8.90;;;5.10;;
11522;SDS011;70090;43.208;27.904;2023-09-07T13:43:24;6.97;;;5.00;;
11522;SDS011;70090;43.208;27.904;2023-09-07T13:45:52;6.73;;;5.00;;
11522;SDS011;70090;43.208;27.904;2023-09-07T13:48:19;8.80;;;4.90;;
11522;SDS011;70090;43.208;27.904;2023-09-07T13:50:46;9.60;;;5.03;;
11522;SDS011;70090;43.208;27.904;2023-09-07T13:53:13;8.47;;;4.77;;
11522;SDS011;70090;43.208;27.904;2023-09-07T13:55:40;11.13;;;5.20;;
11522;SDS011;70090;43.208;27.904;2023-09-07T13:58:09;7.40;;;5.37;;
11522;SDS011;70090;43.208;27.904;2023-09-07T14:00:36;7.57;;;5.00;;
11522;SDS011;70090;43.208;27.904;2023-09-07T14:03:04;8.73;;;4.87;;
11522;SDS011;70090;43.208;27.904;2023-09-07T14:05:31;6.73;;;5.00;;
11522;SDS011;70090;43.208;27.904;2023-09-07T14:07:58;9.13;;;5.57;;
11522;SDS011;70090;43.208;27.904;2023-09-07T14:10:25;6.30;;;5.40;;
11522;SDS011;70090;43.208;27.904;2023-09-07T14:12:51;9.57;;;5.67;;
11522;SDS011;70090;43.208;27.904;2023-09-07T14:15:18;6.27;;;5.37;;
11522;SDS011;70090;43.208;27.904;2023-09-07T14:17:45;13.53;;;5.70;;
11522;SDS011;70090;43.208;27.904;2023-09-07T14:20:13;9.10;;;5.47;;
11522;SDS011;70090;43.208;27.904;2023-09-07T14:22:40;9.50;;;5.63;;
11522;SDS011;70090;43.208;27.904;2023-09-07T14:25:07;7.40;;;5.10;;
11522;SDS011;70090;43.208;27.904;2023-09-07T14:27:34;8.80;;;5.27;;
11522;SDS011;70090;43.208;27.904;2023-09-07T14:30:01;6.90;;;5.07;;
11522;SDS011;70090;43.208;27.904;2023-09-07T14:32:28;10.70;;;5.63;;
11522;SDS011;70090;43.208;27.904;2023-09-07T14:34:55;11.87;;;5.97;;
11522;SDS011;70090;43.208;27.904;2023-09-07T14:37:23;10.30;;;5.60;;